sensor_id;sensor_type;location;lat;lon;timestamp;temperature;humidity
53645;DHT22;39547;45.554;12.068;2023-04-15T00:05:46;9.70;78.80
53645;DHT22;39547;45.554;12.068;2023-04-15T00:11:49;9.70;79.00
53645;DHT22;39547;45.554;12.068;2023-04-15T00:17:50;9.60;79.00
53645;DHT22;39547;45.554;12.068;2023-04-15T00:23:52;9.60;79.20
53645;DHT22;39547;45.554;12.068;2023-04-15T00:29:53;9.50;79.40
53645;DHT22;39547;45.554;12.068;2023-04-15T00:35:55;9.50;79.40
53645;DHT22;39547;45.554;12.068;2023-04-15T00:41:57;9.50;79.40
53645;DHT22;39547;45.554;12.068;2023-04-15T00:47:59;9.50;80.00
53645;DHT22;39547;45.554;12.068;2023-04-15T00:54:04;9.50;79.80
53645;DHT22;39547;45.554;12.068;2023-04-15T01:00:06;9.40;79.70
53645;DHT22;39547;45.554;12.068;2023-04-15T01:06:12;9.30;80.10
53645;DHT22;39547;45.554;12.068;2023-04-15T01:12:15;9.20;80.20
53645;DHT22;39547;45.554;12.068;2023-04-15T01:18:17;9.20;80.50
53645;DHT22;39547;45.554;12.068;2023-04-15T01:24:19;9.20;80.40
53645;DHT22;39547;45.554;12.068;2023-04-15T01:30:21;9.20;80.60
53645;DHT22;39547;45.554;12.068;2023-04-15T01:36:22;9.20;80.80
53645;DHT22;39547;45.554;12.068;2023-04-15T01:42:27;9.20;80.80
53645;DHT22;39547;45.554;12.068;2023-04-15T01:48:29;9.20;80.80
53645;DHT22;39547;45.554;12.068;2023-04-15T01:54:31;9.20;81.10
53645;DHT22;39547;45.554;12.068;2023-04-15T02:00:32;9.20;81.00
53645;DHT22;39547;45.554;12.068;2023-04-15T02:06:34;9.20;81.10
53645;DHT22;39547;45.554;12.068;2023-04-15T02:12:36;9.20;81.00
53645;DHT22;39547;45.554;12.068;2023-04-15T02:18:38;9.20;81.00
53645;DHT22;39547;45.554;12.068;2023-04-15T02:24:39;9.20;80.90
53645;DHT22;39547;45.554;12.068;2023-04-15T02:30:40;9.20;80.90
53645;DHT22;39547;45.554;12.068;2023-04-15T02:36:42;9.20;80.90
53645;DHT22;39547;45.554;12.068;2023-04-15T02:42:43;9.20;81.00
53645;DHT22;39547;45.554;12.068;2023-04-15T02:48:48;9.20;81.30
53645;DHT22;39547;45.554;12.068;2023-04-15T02:54:50;9.20;81.10
53645;DHT22;39547;45.554;12.068;2023-04-15T03:00:51;9.20;81.00
53645;DHT22;39547;45.554;12.068;2023-04-15T03:06:53;9.20;81.20
53645;DHT22;39547;45.554;12.068;2023-04-15T03:12:54;9.00;81.10
53645;DHT22;39547;45.554;12.068;2023-04-15T03:18:58;9.00;81.10
53645;DHT22;39547;45.554;12.068;2023-04-15T03:24:59;8.90;81.30
53645;DHT22;39547;45.554;12.068;2023-04-15T03:31:02;8.90;81.50
53645;DHT22;39547;45.554;12.068;2023-04-15T03:37:04;8.70;81.40
53645;DHT22;39547;45.554;12.068;2023-04-15T03:43:06;8.80;81.60
53645;DHT22;39547;45.554;12.068;2023-04-15T03:49:07;8.80;81.70
53645;DHT22;39547;45.554;12.068;2023-04-15T03:55:09;8.80;82.00
53645;DHT22;39547;45.554;12.068;2023-04-15T04:01:10;8.80;82.20
53645;DHT22;39547;45.554;12.068;2023-04-15T04:07:16;8.70;82.40
53645;DHT22;39547;45.554;12.068;2023-04-15T04:13:18;8.70;82.60
53645;DHT22;39547;45.554;12.068;2023-04-15T04:19:19;8.70;82.70
53645;DHT22;39547;45.554;12.068;2023-04-15T04:25:21;8.80;83.00
53645;DHT22;39547;45.554;12.068;2023-04-15T04:31:22;8.90;82.80
53645;DHT22;39547;45.554;12.068;2023-04-15T04:37:24;8.90;82.60
53645;DHT22;39547;45.554;12.068;2023-04-15T04:43:25;9.00;82.70
53645;DHT22;39547;45.554;12.068;2023-04-15T04:49:27;9.10;83.30
53645;DHT22;39547;45.554;12.068;2023-04-15T04:55:29;9.20;83.30
53645;DHT22;39547;45.554;12.068;2023-04-15T05:01:32;9.20;82.90
53645;DHT22;39547;45.554;12.068;2023-04-15T05:07:33;9.30;83.20
53645;DHT22;39547;45.554;12.068;2023-04-15T05:13:35;9.40;83.50
53645;DHT22;39547;45.554;12.068;2023-04-15T05:19:38;9.50;83.80
53645;DHT22;39547;45.554;12.068;2023-04-15T05:25:40;9.60;84.30
53645;DHT22;39547;45.554;12.068;2023-04-15T05:31:41;9.70;84.10
53645;DHT22;39547;45.554;12.068;2023-04-15T05:37:43;9.80;84.30
53645;DHT22;39547;45.554;12.068;2023-04-15T05:43:45;10.00;84.00
53645;DHT22;39547;45.554;12.068;2023-04-15T05:49:46;10.20;83.90
53645;DHT22;39547;45.554;12.068;2023-04-15T05:55:48;10.20;83.60
53645;DHT22;39547;45.554;12.068;2023-04-15T06:01:50;10.30;83.20
53645;DHT22;39547;45.554;12.068;2023-04-15T06:07:52;10.40;83.50
53645;DHT22;39547;45.554;12.068;2023-04-15T06:13:53;10.50;83.60
53645;DHT22;39547;45.554;12.068;2023-04-15T06:19:55;10.60;83.00
53645;DHT22;39547;45.554;12.068;2023-04-15T06:25:56;10.70;82.80
53645;DHT22;39547;45.554;12.068;2023-04-15T06:31:58;10.90;82.70
53645;DHT22;39547;45.554;12.068;2023-04-15T06:37:59;11.00;83.00
53645;DHT22;39547;45.554;12.068;2023-04-15T06:44:01;11.10;82.50
53645;DHT22;39547;45.554;12.068;2023-04-15T06:50:02;11.20;82.20
53645;DHT22;39547;45.554;12.068;2023-04-15T06:56:04;11.30;82.20
53645;DHT22;39547;45.554;12.068;2023-04-15T07:02:09;11.50;82.00
53645;DHT22;39547;45.554;12.068;2023-04-15T07:08:12;11.60;81.70
53645;DHT22;39547;45.554;12.068;2023-04-15T07:14:14;11.70;81.60
53645;DHT22;39547;45.554;12.068;2023-04-15T07:20:15;11.90;81.50
53645;DHT22;39547;45.554;12.068;2023-04-15T07:26:16;12.20;81.20
53645;DHT22;39547;45.554;12.068;2023-04-15T07:32:18;12.50;80.80
53645;DHT22;39547;45.554;12.068;2023-04-15T07:38:21;12.70;80.50
53645;DHT22;39547;45.554;12.068;2023-04-15T07:44:23;13.00;79.70
53645;DHT22;39547;45.554;12.068;2023-04-15T07:50:25;13.10;79.50
53645;DHT22;39547;45.554;12.068;2023-04-15T07:56:27;13.20;79.50
53645;DHT22;39547;45.554;12.068;2023-04-15T08:02:28;13.20;79.10
53645;DHT22;39547;45.554;12.068;2023-04-15T08:08:30;13.40;78.40
53645;DHT22;39547;45.554;12.068;2023-04-15T08:14:32;13.50;78.50
53645;DHT22;39547;45.554;12.068;2023-04-15T08:20:33;13.70;78.20
53645;DHT22;39547;45.554;12.068;2023-04-15T08:26:34;13.70;78.10
53645;DHT22;39547;45.554;12.068;2023-04-15T08:32:36;14.10;77.60
53645;DHT22;39547;45.554;12.068;2023-04-15T08:38:38;14.30;77.30
53645;DHT22;39547;45.554;12.068;2023-04-15T08:44:39;14.60;76.80
53645;DHT22;39547;45.554;12.068;2023-04-15T08:50:41;14.60;75.70
53645;DHT22;39547;45.554;12.068;2023-04-15T08:56:43;14.40;75.50
53645;DHT22;39547;45.554;12.068;2023-04-15T09:02:45;14.20;76.20
53645;DHT22;39547;45.554;12.068;2023-04-15T09:08:46;14.30;76.00
53645;DHT22;39547;45.554;12.068;2023-04-15T09:14:48;14.40;75.70
53645;DHT22;39547;45.554;12.068;2023-04-15T09:20:52;14.50;75.40
53645;DHT22;39547;45.554;12.068;2023-04-15T09:26:54;14.70;74.90
53645;DHT22;39547;45.554;12.068;2023-04-15T09:32:58;14.70;74.20
53645;DHT22;39547;45.554;12.068;2023-04-15T09:39:00;14.80;73.80
53645;DHT22;39547;45.554;12.068;2023-04-15T09:45:11;15.20;73.30
53645;DHT22;39547;45.554;12.068;2023-04-15T09:51:13;15.30;72.10
53645;DHT22;39547;45.554;12.068;2023-04-15T09:57:14;15.60;72.00
53645;DHT22;39547;45.554;12.068;2023-04-15T10:03:20;15.80;71.50
53645;DHT22;39547;45.554;12.068;2023-04-15T10:09:21;16.10;70.80
53645;DHT22;39547;45.554;12.068;2023-04-15T10:15:23;16.10;69.90
53645;DHT22;39547;45.554;12.068;2023-04-15T10:21:27;16.00;70.20
53645;DHT22;39547;45.554;12.068;2023-04-15T10:27:31;16.20;69.80
53645;DHT22;39547;45.554;12.068;2023-04-15T10:33:34;16.20;68.90
53645;DHT22;39547;45.554;12.068;2023-04-15T10:45:37;16.60;67.30
53645;DHT22;39547;45.554;12.068;2023-04-15T10:51:40;16.90;67.00
53645;DHT22;39547;45.554;12.068;2023-04-15T10:57:43;17.20;65.20
53645;DHT22;39547;45.554;12.068;2023-04-15T11:03:45;17.10;65.50
53645;DHT22;39547;45.554;12.068;2023-04-15T11:09:46;16.90;65.90
53645;DHT22;39547;45.554;12.068;2023-04-15T11:15:48;17.10;66.10
53645;DHT22;39547;45.554;12.068;2023-04-15T11:21:50;17.50;64.90
53645;DHT22;39547;45.554;12.068;2023-04-15T11:27:53;18.10;62.60
53645;DHT22;39547;45.554;12.068;2023-04-15T11:33:57;18.60;60.20
53645;DHT22;39547;45.554;12.068;2023-04-15T11:40:01;18.70;59.10
53645;DHT22;39547;45.554;12.068;2023-04-15T11:46:03;18.50;59.90
53645;DHT22;39547;45.554;12.068;2023-04-15T11:52:11;18.80;58.30
53645;DHT22;39547;45.554;12.068;2023-04-15T11:58:23;19.10;56.10
53645;DHT22;39547;45.554;12.068;2023-04-15T12:04:24;19.10;56.00
53645;DHT22;39547;45.554;12.068;2023-04-15T12:10:26;19.70;55.80
53645;DHT22;39547;45.554;12.068;2023-04-15T12:16:27;20.40;56.10
53645;DHT22;39547;45.554;12.068;2023-04-15T12:22:29;20.60;56.10
53645;DHT22;39547;45.554;12.068;2023-04-15T12:28:30;20.80;55.50
53645;DHT22;39547;45.554;12.068;2023-04-15T12:34:40;21.80;54.60
53645;DHT22;39547;45.554;12.068;2023-04-15T12:40:41;22.70;52.40
53645;DHT22;39547;45.554;12.068;2023-04-15T12:46:43;23.00;51.10
53645;DHT22;39547;45.554;12.068;2023-04-15T12:52:44;23.30;49.40
53645;DHT22;39547;45.554;12.068;2023-04-15T12:58:46;23.70;48.50
53645;DHT22;39547;45.554;12.068;2023-04-15T13:04:47;23.30;47.10
53645;DHT22;39547;45.554;12.068;2023-04-15T13:10:49;23.10;46.40
53645;DHT22;39547;45.554;12.068;2023-04-15T13:16:50;24.00;46.20
53645;DHT22;39547;45.554;12.068;2023-04-15T13:22:52;24.30;44.80
53645;DHT22;39547;45.554;12.068;2023-04-15T13:28:54;23.50;45.80
53645;DHT22;39547;45.554;12.068;2023-04-15T13:34:55;22.20;47.80
53645;DHT22;39547;45.554;12.068;2023-04-15T13:40:57;23.20;47.40
53645;DHT22;39547;45.554;12.068;2023-04-15T13:46:58;23.70;46.40
53645;DHT22;39547;45.554;12.068;2023-04-15T13:53:00;24.20;44.90
53645;DHT22;39547;45.554;12.068;2023-04-15T13:59:01;23.80;46.00
53645;DHT22;39547;45.554;12.068;2023-04-15T14:05:03;24.30;45.40
53645;DHT22;39547;45.554;12.068;2023-04-15T14:11:05;25.00;44.40
53645;DHT22;39547;45.554;12.068;2023-04-15T14:17:07;25.70;42.90
53645;DHT22;39547;45.554;12.068;2023-04-15T14:23:08;26.40;40.60
53645;DHT22;39547;45.554;12.068;2023-04-15T14:29:09;25.00;40.70
53645;DHT22;39547;45.554;12.068;2023-04-15T14:35:11;22.70;42.00
53645;DHT22;39547;45.554;12.068;2023-04-15T14:41:12;20.90;44.50
53645;DHT22;39547;45.554;12.068;2023-04-15T14:47:14;19.70;46.20
53645;DHT22;39547;45.554;12.068;2023-04-15T14:53:16;18.60;47.00
53645;DHT22;39547;45.554;12.068;2023-04-15T14:59:17;17.80;49.70
53645;DHT22;39547;45.554;12.068;2023-04-15T15:05:19;17.00;53.00
53645;DHT22;39547;45.554;12.068;2023-04-15T15:11:22;16.20;56.30
53645;DHT22;39547;45.554;12.068;2023-04-15T15:17:23;15.70;59.90
53645;DHT22;39547;45.554;12.068;2023-04-15T15:23:24;15.30;61.30
53645;DHT22;39547;45.554;12.068;2023-04-15T15:29:26;15.20;62.60
53645;DHT22;39547;45.554;12.068;2023-04-15T15:35:28;15.20;63.40
53645;DHT22;39547;45.554;12.068;2023-04-15T15:41:29;15.20;63.60
53645;DHT22;39547;45.554;12.068;2023-04-15T15:47:33;15.30;63.50
53645;DHT22;39547;45.554;12.068;2023-04-15T15:53:34;15.50;63.80
53645;DHT22;39547;45.554;12.068;2023-04-15T15:59:36;15.70;64.70
53645;DHT22;39547;45.554;12.068;2023-04-15T16:05:43;15.70;64.10
53645;DHT22;39547;45.554;12.068;2023-04-15T16:11:45;15.70;63.80
53645;DHT22;39547;45.554;12.068;2023-04-15T16:17:46;15.60;63.50
53645;DHT22;39547;45.554;12.068;2023-04-15T16:23:48;15.50;63.60
53645;DHT22;39547;45.554;12.068;2023-04-15T16:29:49;15.30;63.60
53645;DHT22;39547;45.554;12.068;2023-04-15T16:35:50;15.20;63.80
53645;DHT22;39547;45.554;12.068;2023-04-15T16:41:52;15.00;64.20
53645;DHT22;39547;45.554;12.068;2023-04-15T16:47:54;14.90;64.70
53645;DHT22;39547;45.554;12.068;2023-04-15T16:53:56;14.70;65.00
53645;DHT22;39547;45.554;12.068;2023-04-15T16:59:58;14.60;65.10
53645;DHT22;39547;45.554;12.068;2023-04-15T17:05:59;14.60;65.70
53645;DHT22;39547;45.554;12.068;2023-04-15T17:12:03;14.60;65.60
53645;DHT22;39547;45.554;12.068;2023-04-15T17:18:04;14.60;65.20
53645;DHT22;39547;45.554;12.068;2023-04-15T17:24:06;14.50;65.10
53645;DHT22;39547;45.554;12.068;2023-04-15T17:30:08;14.30;65.40
53645;DHT22;39547;45.554;12.068;2023-04-15T17:36:10;14.30;65.60
53645;DHT22;39547;45.554;12.068;2023-04-15T17:42:12;14.30;65.50
53645;DHT22;39547;45.554;12.068;2023-04-15T17:48:13;14.30;65.70
53645;DHT22;39547;45.554;12.068;2023-04-15T17:54:15;14.20;65.60
53645;DHT22;39547;45.554;12.068;2023-04-15T18:00:16;14.00;65.80
53645;DHT22;39547;45.554;12.068;2023-04-15T18:06:18;13.90;66.00
53645;DHT22;39547;45.554;12.068;2023-04-15T18:12:22;13.70;66.20
53645;DHT22;39547;45.554;12.068;2023-04-15T18:18:23;13.60;66.00
53645;DHT22;39547;45.554;12.068;2023-04-15T18:24:25;13.40;66.30
53645;DHT22;39547;45.554;12.068;2023-04-15T18:30:26;13.20;66.40
53645;DHT22;39547;45.554;12.068;2023-04-15T18:36:28;13.20;66.90
53645;DHT22;39547;45.554;12.068;2023-04-15T18:42:30;13.00;67.30
53645;DHT22;39547;45.554;12.068;2023-04-15T18:48:31;12.80;67.80
53645;DHT22;39547;45.554;12.068;2023-04-15T18:54:32;12.70;68.30
53645;DHT22;39547;45.554;12.068;2023-04-15T19:00:34;12.60;68.80
53645;DHT22;39547;45.554;12.068;2023-04-15T19:06:39;12.50;69.20
53645;DHT22;39547;45.554;12.068;2023-04-15T19:12:40;12.50;69.60
53645;DHT22;39547;45.554;12.068;2023-04-15T19:18:42;12.40;70.20
53645;DHT22;39547;45.554;12.068;2023-04-15T19:24:44;12.20;70.80
53645;DHT22;39547;45.554;12.068;2023-04-15T19:30:46;12.20;70.90
53645;DHT22;39547;45.554;12.068;2023-04-15T19:36:47;12.10;71.00
53645;DHT22;39547;45.554;12.068;2023-04-15T19:42:49;12.10;71.20
53645;DHT22;39547;45.554;12.068;2023-04-15T19:48:50;12.00;71.20
53645;DHT22;39547;45.554;12.068;2023-04-15T19:54:53;12.00;71.60
53645;DHT22;39547;45.554;12.068;2023-04-15T20:00:54;12.00;71.90
53645;DHT22;39547;45.554;12.068;2023-04-15T20:06:56;11.90;72.10
53645;DHT22;39547;45.554;12.068;2023-04-15T20:12:58;11.80;72.40
53645;DHT22;39547;45.554;12.068;2023-04-15T20:18:59;11.80;72.70
53645;DHT22;39547;45.554;12.068;2023-04-15T20:25:08;11.70;72.80
53645;DHT22;39547;45.554;12.068;2023-04-15T20:31:10;11.70;73.00
53645;DHT22;39547;45.554;12.068;2023-04-15T20:37:11;11.70;73.10
53645;DHT22;39547;45.554;12.068;2023-04-15T20:43:13;11.70;73.60
53645;DHT22;39547;45.554;12.068;2023-04-15T20:49:14;11.60;73.50
53645;DHT22;39547;45.554;12.068;2023-04-15T20:55:16;11.50;73.80
53645;DHT22;39547;45.554;12.068;2023-04-15T21:01:17;11.40;74.10
53645;DHT22;39547;45.554;12.068;2023-04-15T21:07:18;11.40;74.30
53645;DHT22;39547;45.554;12.068;2023-04-15T21:13:20;11.30;74.60
53645;DHT22;39547;45.554;12.068;2023-04-15T21:19:21;11.20;74.40
53645;DHT22;39547;45.554;12.068;2023-04-15T21:25:22;11.10;74.90
53645;DHT22;39547;45.554;12.068;2023-04-15T21:31:24;10.90;76.00
53645;DHT22;39547;45.554;12.068;2023-04-15T21:37:25;10.80;76.30
53645;DHT22;39547;45.554;12.068;2023-04-15T21:43:27;10.60;76.60
53645;DHT22;39547;45.554;12.068;2023-04-15T21:49:28;10.50;76.90
53645;DHT22;39547;45.554;12.068;2023-04-15T21:55:29;10.50;76.60
53645;DHT22;39547;45.554;12.068;2023-04-15T22:01:31;10.50;76.80
53645;DHT22;39547;45.554;12.068;2023-04-15T22:07:32;10.50;76.70
53645;DHT22;39547;45.554;12.068;2023-04-15T22:13:34;10.50;76.90
53645;DHT22;39547;45.554;12.068;2023-04-15T22:19:36;10.50;76.90
53645;DHT22;39547;45.554;12.068;2023-04-15T22:25:37;10.50;76.90
53645;DHT22;39547;45.554;12.068;2023-04-15T22:31:38;10.50;76.90
53645;DHT22;39547;45.554;12.068;2023-04-15T22:37:40;10.50;76.90
53645;DHT22;39547;45.554;12.068;2023-04-15T22:43:42;10.50;76.80
53645;DHT22;39547;45.554;12.068;2023-04-15T22:49:43;10.40;77.00
53645;DHT22;39547;45.554;12.068;2023-04-15T22:55:48;10.40;77.00
53645;DHT22;39547;45.554;12.068;2023-04-15T23:01:49;10.30;77.00
53645;DHT22;39547;45.554;12.068;2023-04-15T23:07:51;10.30;76.90
53645;DHT22;39547;45.554;12.068;2023-04-15T23:13:52;10.20;76.70
53645;DHT22;39547;45.554;12.068;2023-04-15T23:19:53;10.10;76.70
53645;DHT22;39547;45.554;12.068;2023-04-15T23:25:55;10.10;77.00
53645;DHT22;39547;45.554;12.068;2023-04-15T23:31:56;10.00;77.20
53645;DHT22;39547;45.554;12.068;2023-04-15T23:37:58;10.00;77.20
53645;DHT22;39547;45.554;12.068;2023-04-15T23:43:59;9.90;77.30
53645;DHT22;39547;45.554;12.068;2023-04-15T23:50:01;9.80;77.30
53645;DHT22;39547;45.554;12.068;2023-04-15T23:56:02;9.70;77.40
